Date,TemperatureHighF,TemperatureAvgF,TemperatureLowF,DewpointHighF,DewpointAvgF,DewpointLowF,HumidityHigh,HumidityAvg,HumidityLow,PressureMaxIn,PressureMinIn,WindSpeedMaxMPH,WindSpeedAvgMPH,GustSpeedMaxMPH,PrecipitationSumIn
2013-7-1,76.3,67.1,60.2,65.5,60.3,56.6,90,79,60,28.29,28.18,15,4,15,0.00
2013-7-2,72.3,63.6,56.7,61.9,55.8,49.3,96,77,56,28.36,28.29,16,5,16,0.00
2013-7-3,70.8,61.9,55.0,58.3,53.6,49.0,88,75,55,28.38,28.25,18,5,18,0.00
2013-7-4,69.2,61.0,55.7,58.9,54.8,52.2,90,81,60,28.31,28.20,16,6,16,0.00
2013-7-5,69.3,60.9,51.1,62.3,55.9,49.7,97,84,69,28.22,28.08,11,4,11,0.00
2013-7-6,76.3,64.0,52.2,61.2,56.0,50.8,97,77,51,28.12,28.00,13,3,13,0.00
2013-7-7,72.8,63.9,53.6,63.8,56.6,51.0,95,78,52,28.06,27.97,12,3,12,0.00
2013-7-8,74.0,62.8,54.0,64.5,57.6,52.0,95,84,64,28.20,28.03,13,4,14,0.00
2013-7-9,76.9,63.3,52.0,65.7,56.3,50.5,96,79,51,28.20,28.09,15,3,15,0.00
2013-7-10,68.5,60.2,54.0,59.9,53.6,48.7,93,79,65,28.16,28.03,20,6,20,0.00
2013-7-11,65.8,59.5,53.7,54.5,50.3,47.4,85,72,55,28.14,28.05,22,6,22,0.00
2013-7-12,56.1,53.1,50.3,52.6,49.9,47.9,94,89,79,28.08,28.05,6,1,7,0.00
2013-7-14,75.3,67.1,55.7,60.6,52.3,43.8,83,61,36,28.10,28.01,16,6,17,0.00
2013-7-15,79.3,65.2,50.5,58.0,53.1,47.5,96,68,40,28.06,27.91,16,4,17,0.00
2013-7-16,83.5,68.9,51.2,62.3,55.8,49.2,95,66,39,27.92,27.81,14,4,14,0.00
2013-7-17,69.3,65.2,59.5,61.8,59.0,54.2,90,80,72,28.13,27.85,25,9,25,0.00
2013-7-18,72.8,62.8,55.6,61.3,56.1,52.9,92,79,63,28.14,27.99,14,4,14,0.00
2013-7-19,72.1,60.6,54.2,62.2,56.3,52.4,95,86,68,28.02,27.80,11,3,11,0.00
2013-7-20,71.0,58.9,54.2,62.2,55.8,52.6,96,90,72,27.83,27.68,10,3,10,0.00
2013-7-21,71.1,59.3,52.4,64.2,56.5,51.0,98,91,71,27.69,27.57,11,3,11,0.00
2013-7-22,74.3,61.5,54.8,63.9,57.7,53.5,97,88,66,27.70,27.60,10,3,10,0.00
2013-7-23,80.1,62.6,51.5,64.1,56.0,50.3,98,81,50,27.68,27.55,15,4,15,0.00
2013-7-24,77.7,62.1,50.7,64.4,54.8,49.0,96,78,54,27.63,27.53,13,4,13,0.00
2013-7-25,76.3,61.2,49.6,65.5,55.1,48.5,98,82,56,27.60,27.51,15,3,15,0.00
2013-7-26,78.5,62.8,50.2,61.7,53.2,47.6,96,73,42,27.56,26.98,16,3,20,0.00
2013-7-27,76.9,62.1,49.6,61.2,53.7,48.0,95,76,46,27.01,26.80,15,3,15,0.00
2013-7-28,67.5,59.9,50.4,61.1,55.5,48.7,96,86,74,26.81,26.66,16,6,16,0.00
2013-7-29,70.0,61.5,53.1,60.3,56.0,51.7,97,83,66,26.68,26.52,9,3,9,0.00
2013-7-30,72.8,59.9,50.6,62.5,55.7,49.5,98,87,67,26.59,26.50,12,3,12,0.00
2013-7-31,68.0,59.0,53.2,62.8,56.5,52.4,98,92,81,26.44,26.39,14,3,14,0.00